Terminal Aerodrome Forecast
Issued by NWS

Current Version | Previous Version | Graphics & Text | Print | Product List | Glossary On
Versions: 1 2 3 4 5 6 7 8 9 10 11 12 13 14 15 16 17 18 19 20 21 22 23 24 25
856
FTUS41 KPBZ 170531
TAFMGW
TAF
KMGW 170531Z 1706/1806 00000KT 4SM BR VCSH BKN090
     FM170900 18003KT 2SM -RA BR OVC030
     FM171200 18006KT 2SM -RA BR OVC020
     FM171500 19007KT 3SM -RA BR OVC015 WS020/22035KT
     FM172100 23011G21KT 5SM -RA BR OVC015=

USA.gov is the U.S. government's official web portal to all federal, state and local government web resources and services.